createdAt,value
2019-05-07T00:02:09.059Z,1.93
2019-05-07T00:07:13.048Z,2.13
2019-05-07T00:12:14.857Z,1.53
2019-05-07T00:17:13.761Z,1.10
2019-05-07T00:22:24.134Z,1.86
2019-05-07T00:27:23.128Z,0.87
2019-05-07T00:32:36.966Z,0.90
2019-05-07T00:37:40.140Z,1.18
2019-05-07T00:42:43.852Z,1.44
2019-05-07T00:47:44.866Z,1.08
2019-05-07T00:52:47.455Z,1.38
2019-05-07T00:57:45.109Z,1.08
2019-05-07T01:02:55.926Z,1.32
2019-05-07T01:08:05.032Z,1.43
2019-05-07T01:13:08.550Z,1.34
2019-05-07T01:18:12.197Z,1.09
2019-05-07T01:23:09.996Z,1.21
2019-05-07T01:28:08.378Z,1.15
2019-05-07T01:33:24.181Z,1.20
2019-05-07T01:38:24.761Z,3.12
2019-05-07T01:43:22.914Z,1.37
2019-05-07T01:48:32.536Z,1.14
2019-05-07T01:53:57.192Z,1.86
2019-05-07T01:58:48.507Z,1.38
2019-05-07T02:03:52.676Z,1.50
2019-05-07T02:08:53.161Z,1.06
2019-05-07T02:13:55.397Z,1.35
2019-05-07T02:18:55.680Z,1.38
2019-05-07T02:23:54.567Z,1.39
2019-05-07T02:29:02.992Z,1.31
2019-05-07T02:34:14.056Z,1.77
2019-05-07T02:39:23.721Z,1.43
2019-05-07T02:44:36.141Z,1.40
2019-05-07T02:49:36.161Z,4.12
2019-05-07T02:54:40.182Z,1.20
2019-05-07T02:59:44.028Z,1.06
2019-05-07T03:04:43.762Z,1.92
2019-05-07T03:09:45.897Z,1.22
2019-05-07T03:14:48.569Z,1.38
2019-05-07T03:19:53.478Z,1.47
2019-05-07T03:24:53.151Z,1.19
2019-05-07T03:30:04.281Z,1.24
2019-05-07T03:35:06.885Z,1.31
2019-05-07T03:40:03.011Z,1.79
2019-05-07T03:45:22.882Z,1.41
2019-05-07T03:50:28.738Z,1.37
2019-05-07T03:55:44.236Z,1.41
2019-05-07T04:00:44.247Z,1.47
2019-05-07T04:05:52.784Z,1.50
2019-05-07T04:10:54.823Z,2.12
2019-05-07T04:16:04.819Z,1.59
2019-05-07T04:21:03.743Z,1.57
2019-05-07T04:26:04.547Z,1.74
2019-05-07T04:31:17.481Z,1.27
2019-05-07T04:36:06.278Z,1.21
2019-05-07T04:41:13.594Z,1.57
2019-05-07T04:46:14.088Z,2.14
2019-05-07T04:51:14.531Z,2.35
2019-05-07T04:56:18.187Z,1.72
2019-05-07T05:01:18.751Z,1.76
2019-05-07T05:06:18.976Z,1.65
2019-05-07T05:11:35.700Z,1.53
2019-05-07T05:16:40.007Z,2.33
2019-05-07T05:21:49.030Z,1.52
2019-05-07T05:26:46.428Z,1.74
2019-05-07T05:32:06.022Z,3.15
2019-05-07T05:37:05.217Z,1.38
2019-05-07T05:42:04.723Z,1.33
2019-05-07T05:47:14.597Z,2.00
2019-05-07T05:52:14.533Z,1.38
2019-05-07T05:57:25.027Z,1.47
2019-05-07T06:02:23.248Z,1.50
2019-05-07T06:07:33.551Z,1.10
2019-05-07T06:12:34.394Z,1.60
2019-05-07T06:17:36.592Z,1.54
2019-05-07T06:22:39.077Z,2.50
2019-05-07T06:27:41.858Z,1.74
2019-05-07T06:32:43.152Z,1.32
2019-05-07T06:37:55.621Z,3.02
2019-05-07T06:43:03.153Z,1.73
2019-05-07T06:47:56.976Z,1.46
2019-05-07T06:52:57.252Z,2.06
2019-05-07T06:58:12.103Z,1.27
2019-05-07T07:03:02.286Z,1.52
2019-05-07T07:08:06.001Z,1.36
2019-05-07T07:13:06.605Z,1.34
2019-05-07T07:18:12.285Z,1.52
2019-05-07T07:23:11.828Z,2.50
2019-05-07T07:28:21.742Z,1.54
2019-05-07T07:33:31.864Z,1.47
2019-05-07T07:38:42.076Z,1.77
2019-05-07T07:43:45.628Z,1.27
2019-05-07T07:49:04.265Z,1.34
2019-05-07T07:54:04.015Z,1.32
2019-05-07T07:58:53.042Z,1.52
2019-05-07T08:04:08.026Z,1.86
2019-05-07T08:09:08.799Z,1.22
2019-05-07T08:14:17.408Z,1.25
2019-05-07T08:19:21.728Z,1.60
2019-05-07T08:24:24.619Z,1.69
2019-05-07T08:29:43.056Z,1.96
2019-05-07T08:34:42.858Z,1.89
2019-05-07T08:39:43.847Z,2.94
2019-05-07T08:44:47.191Z,2.30
2019-05-07T08:49:48.770Z,2.23
2019-05-07T08:54:48.913Z,2.05
2019-05-07T08:59:58.458Z,2.17
2019-05-07T09:04:52.353Z,2.58
2019-05-07T09:09:57.805Z,2.46
2019-05-07T09:15:05.176Z,1.87
2019-05-07T09:20:17.424Z,1.98
2019-05-07T09:25:12.930Z,1.94
2019-05-07T09:30:21.988Z,1.47
2019-05-07T09:35:29.526Z,1.52
2019-05-07T09:40:44.332Z,1.76
2019-05-07T09:45:44.272Z,1.55
2019-05-07T09:50:52.915Z,1.56
2019-05-07T09:55:54.093Z,1.54
2019-05-07T10:01:04.506Z,1.74
2019-05-07T10:06:05.445Z,2.02
2019-05-07T10:11:12.092Z,1.89
2019-05-07T10:16:16.284Z,1.64
2019-05-07T10:21:18.023Z,2.31
2019-05-07T10:26:19.091Z,1.51
2019-05-07T10:31:26.724Z,1.22
2019-05-07T10:36:28.050Z,2.03
2019-05-07T10:41:31.852Z,2.37
2019-05-07T10:46:36.355Z,1.63
2019-05-07T10:51:39.480Z,1.32
2019-05-07T10:56:41.896Z,1.61
2019-05-07T11:01:43.141Z,1.54
2019-05-07T11:06:43.399Z,1.98
2019-05-07T11:11:52.298Z,1.39
2019-05-07T11:17:03.413Z,2.07
2019-05-07T11:22:03.956Z,2.40
2019-05-07T11:27:02.455Z,2.03
2019-05-07T11:32:21.624Z,2.18
2019-05-07T11:37:22.463Z,1.59
2019-05-07T11:42:31.088Z,1.89
2019-05-07T11:47:31.733Z,1.40
2019-05-07T11:52:42.537Z,1.48
2019-05-07T11:57:39.812Z,1.53
2019-05-07T12:02:53.849Z,1.67
2019-05-07T12:08:03.704Z,1.45
2019-05-07T12:13:04.997Z,4.82
2019-05-07T12:18:08.646Z,1.96
2019-05-07T12:23:08.839Z,2.32
2019-05-07T12:28:09.802Z,1.38
2019-05-07T12:33:12.319Z,1.25
2019-05-07T12:38:12.801Z,1.45
2019-05-07T12:43:21.781Z,1.95
2019-05-07T12:48:22.142Z,1.61
2019-05-07T12:53:31.880Z,1.44
2019-05-07T12:58:37.870Z,1.19
2019-05-07T13:03:56.833Z,1.21
2019-05-07T13:08:55.259Z,1.25
2019-05-07T13:13:53.377Z,1.36
2019-05-07T13:18:57.166Z,1.12
2019-05-07T13:24:06.307Z,0.98
2019-05-07T13:29:03.855Z,1.29
2019-05-07T13:34:16.335Z,1.49
2019-05-07T13:39:28.215Z,1.24
2019-05-07T13:44:17.799Z,3.61
2019-05-07T13:49:26.826Z,1.48
2019-05-07T13:54:37.313Z,1.08
2019-05-07T13:59:43.876Z,1.30
2019-05-07T14:04:44.694Z,1.37
2019-05-07T14:09:47.190Z,1.68
2019-05-07T14:14:49.064Z,1.81
2019-05-07T14:19:55.439Z,1.29
2019-05-07T14:24:55.063Z,2.27
2019-05-07T14:30:10.370Z,1.43
2019-05-07T14:35:16.264Z,1.67
2019-05-07T14:40:27.198Z,1.37
2019-05-07T14:45:28.294Z,2.42
2019-05-07T14:50:25.718Z,2.92
2019-05-07T14:55:32.436Z,2.79
2019-05-07T15:00:51.765Z,1.79
2019-05-07T15:05:45.527Z,1.61
2019-05-07T15:10:55.806Z,1.68
2019-05-07T15:15:52.450Z,3.17
2019-05-07T15:20:56.767Z,2.07
2019-05-07T15:26:05.222Z,1.69
2019-05-07T15:31:23.617Z,1.66
2019-05-07T15:36:12.452Z,1.66
2019-05-07T15:41:16.978Z,2.42
2019-05-07T15:46:19.648Z,2.47
2019-05-07T15:51:22.582Z,2.11
2019-05-07T15:56:23.844Z,2.52
2019-05-07T16:01:36.295Z,2.40
2019-05-07T16:06:23.375Z,1.83
2019-05-07T16:11:35.990Z,1.91
2019-05-07T16:16:36.297Z,1.79
2019-05-07T16:21:34.925Z,2.01
2019-05-07T16:26:54.341Z,2.25
2019-05-07T16:32:08.478Z,1.50
2019-05-07T16:37:07.815Z,1.53
2019-05-07T16:42:11.665Z,1.49
2019-05-07T16:47:12.281Z,2.03
2019-05-07T16:52:11.987Z,2.28
2019-05-07T16:57:23.245Z,2.97
2019-05-07T17:02:22.002Z,2.41
2019-05-07T17:07:32.193Z,2.97
2019-05-07T17:12:46.325Z,2.04
2019-05-07T17:17:47.458Z,1.88
2019-05-07T17:22:48.340Z,2.07
2019-05-07T17:27:52.104Z,2.15
2019-05-07T17:32:54.618Z,1.59
2019-05-07T17:38:07.286Z,1.82
2019-05-07T17:43:03.188Z,1.65
2019-05-07T17:48:12.297Z,1.55
2019-05-07T17:53:22.393Z,2.42
2019-05-07T17:58:32.519Z,2.49
2019-05-07T18:03:34.852Z,2.23
2019-05-07T18:08:37.781Z,4.86
2019-05-07T18:13:44.880Z,2.00
2019-05-07T18:18:48.503Z,1.61
2019-05-07T18:23:51.605Z,1.48
2019-05-07T18:28:52.290Z,2.11
2019-05-07T18:33:56.139Z,3.63
2019-05-07T18:38:55.919Z,9.36
2019-05-07T18:44:13.574Z,6.19
2019-05-07T18:49:10.012Z,2.64
2019-05-07T18:54:29.838Z,3.10
2019-05-07T18:59:22.237Z,3.19
2019-05-07T19:04:23.127Z,2.49
2019-05-07T19:09:28.297Z,3.53
2019-05-07T19:14:27.873Z,3.66
2019-05-07T19:19:41.945Z,1.80
2019-05-07T19:24:44.239Z,3.16
2019-05-07T19:29:37.006Z,2.34
2019-05-07T19:34:35.818Z,2.34
2019-05-07T19:39:35.610Z,2.52
2019-05-07T19:44:51.836Z,2.48
2019-05-07T19:49:49.582Z,2.08
2019-05-07T19:55:01.414Z,2.26
2019-05-07T19:59:58.645Z,3.47
2019-05-07T20:05:07.292Z,9.19
2019-05-07T20:10:11.997Z,3.31
2019-05-07T20:15:22.264Z,9.67
2019-05-07T20:20:33.098Z,20.54
2019-05-07T20:25:25.135Z,7.44
2019-05-07T20:30:36.298Z,18.64
2019-05-07T20:35:39.358Z,8.50
2019-05-07T20:40:35.925Z,4.61
2019-05-07T20:45:46.231Z,12.49
2019-05-07T20:50:44.762Z,18.97
2019-05-07T20:55:45.891Z,21.34
2019-05-07T21:01:04.516Z,4.66
2019-05-07T21:06:07.676Z,3.69
2019-05-07T21:11:04.887Z,3.25
2019-05-07T21:16:16.203Z,2.31
2019-05-07T21:21:18.328Z,3.99
2019-05-07T21:26:22.477Z,3.25
2019-05-07T21:31:22.696Z,2.40
2019-05-07T21:36:22.595Z,4.22
2019-05-07T21:41:23.700Z,2.90
2019-05-07T21:46:32.772Z,2.89
2019-05-07T21:51:34.771Z,5.16
2019-05-07T21:56:39.994Z,3.23
2019-05-07T22:01:52.600Z,2.16
2019-05-07T22:06:45.134Z,2.96
2019-05-07T22:11:44.547Z,2.04
2019-05-07T22:16:57.920Z,2.36
2019-05-07T22:21:52.162Z,4.30
2019-05-07T22:26:50.280Z,7.79
2019-05-07T22:31:53.759Z,4.45
2019-05-07T22:36:56.212Z,3.16
2019-05-07T22:41:56.732Z,2.56
2019-05-07T22:46:58.470Z,3.87
2019-05-07T22:52:02.190Z,2.55
2019-05-07T22:57:02.945Z,3.68
2019-05-07T23:02:03.124Z,3.41
2019-05-07T23:06:59.388Z,2.08
2019-05-07T23:12:13.463Z,2.11
2019-05-07T23:17:13.535Z,2.03
2019-05-07T23:22:15.202Z,1.95
2019-05-07T23:27:15.681Z,3.28
2019-05-07T23:32:16.848Z,2.89
2019-05-07T23:37:17.530Z,3.46
2019-05-07T23:42:20.846Z,4.82
2019-05-07T23:47:22.732Z,11.49
2019-05-07T23:52:26.871Z,4.08
2019-05-07T23:57:27.929Z,3.07
